ADDS METAR Data INFO
IDs: Format: Raw Decoded Include TAF

Data at: 0752 UTC 23 Jul 2018

KAPA 230653Z 30005KT 10SM OVC110 18/14 A3042 RMK AO2 LTG DSNT NE AND E SLP220 T01780144 403330178
KAPA 230553Z 35005KT 10SM FEW040 SCT080 BKN110 18/16 A3041 RMK AO2 SLP217 P0001 60001 T01830161 10256 20183 50016
KAPA 230453Z 29007KT 10SM SCT070 OVC110 19/15 A3041 RMK AO2 SLP218 T01940150
KAPA 230353Z 27005KT 10SM FEW070 BKN110 BKN220 19/15 A3038 RMK AO2 SLP211 T01890150
KAPA 230253Z 28008KT 10SM SCT070 BKN100 BKN220 19/15 A3035 RMK AO2 RAB10E30 SLP204 P0000 60000 T01890150 51014
KAPA 230153Z 27006KT 10SM BKN070 BKN110 OVC220 23/13 A3034 RMK AO2 LTG DSNT NW SLP196 OCNL LTGICCG DSNT SE AND W-NW CB DSNT SE AND W-NW MOV E T02330133
KAPA 230053Z COR 31006KT 10SM SCT070 BKN110 BKN220 24/13 A3033 RMK AO2 LTG DSNT SW AND W SLP193 OCNL LTGICCG DSNT SW AND W CB DSNT SW AND W MOV E T02390133
KAPA 222353Z 31013KT 10SM FEW040 SCT070 BKN090 BKN190 25/13 A3031 RMK AO2 LTG DSNT S SLP187 OCNL LTGICCG DSNT S CB DSNT S MOV E 60007 T02500128 10333 20211 51026
KAPA 222253Z VRB04KT 10SM FEW040 SCT070 BKN100 BKN190 27/13 A3028 RMK AO2 WSHFT 2151 LTG DSNT SE RAE07 TSE07 SLP180 OCNL LTGICCG DSNT SE CB DSNT SE MOV E P0000 T02670128
KAPA 222211Z 13008KT 10SM SCT040 SCT070 BKN100 BKN190 23/13 A3030 RMK AO2 WSHFT 2151 LTG DSNT E-S RAE07 TSE07 OCNL LTGICCG DSNT E-S CB DSNT E-S MOV E P0000 T02330133
KAPA 222153Z COR 21014G18KT 9SM -TSRA BKN040CB BKN100 BKN180 23/15 A3029 RMK AO2 PK WND 28027/2138 LTG DSNT SE AND S PRESRR SLP189 FRQ LTGICCG SE-S AND DSNT NW TS SE-S MOV E CB DSNT NW MOV E P0007 T02280150
KAPA 222053Z 06008G21KT 020V080 10SM -TSRA SCT040CB BKN100 BKN180 31/09 A3022 RMK AO2 LTG DSNT S-NW RAB52 TSB39 SLP145 FRQ LTGICCG VC SW-W TS VC SW-W MOV E P0000 60000 T03110089 58002
KAPA 222040Z 05011G18KT 030V100 10SM TS SCT040CB BKN100 BKN180 33/09 A3021 RMK AO2 LTG DSNT S-NW TSB39 FRQ LTGICCG VC SW-W TS VC SW-W MOV E T03330094
KAPA 221953Z 05013G20KT 10SM SCT040TCU BKN110 BKN180 32/09 A3022 RMK AO2 LTG DSNT W AND NW SLP142 OCNL LTGICCG DSNT SW-NW CB DSNT SW-NW MOV E TCU SE T03170089
KAPA 221853Z 06009G15KT 10SM FEW100 SCT140 BKN180 32/08 A3023 RMK AO2 SLP145 TCU DSNT S-W T03220078
KAPA 221753Z 08008KT 10SM FEW100 SCT140 BKN180 32/08 A3022 RMK AO2 SLP144 T03170083 10322 20211 50003
KAPA 221653Z 04006KT 10SM FEW100 SCT140 BKN180 31/08 A3023 RMK AO2 SLP145 T03060083
KAPA 221553Z 00000KT 10SM FEW100 FEW150 SCT200 29/08 A3022 RMK AO2 SLP142 T02890083
KAPA 221453Z 25006KT 10SM FEW100 SCT150 BKN200 28/09 A3021 RMK AO2 SLP140 T02780089 53003
KAPA 221353Z 16003KT 10SM FEW100 SCT150 BKN200 24/11 A3020 RMK AO2 SLP142 T02390111
KAPA 221253Z 25007KT 10SM FEW120 SCT150 BKN220 24/09 A3020 RMK AO2 SLP139 T02390094
KAPA 221153Z 27010KT 10SM FEW140 SCT220 22/09 A3020 RMK AO2 SLP141 T02170094 10233 20178 53001
KAPA 221053Z 19006KT 10SM FEW140 SCT220 18/12 A3018 RMK AO2 SLP142 T01830117
KAPA 220953Z 18007KT 10SM FEW140 SCT200 19/12 A3018 RMK AO2 SLP140 T01890117
KAPA 220853Z 00000KT 10SM FEW140 BKN200 21/12 A3020 RMK AO2 SLP135 T02110117 58008
KAPA 220753Z COR 21008KT 10SM FEW140 BKN200 22/12 A3020 RMK AO2 SLP134 T02220117
KAPA 220653Z 20007KT 10SM SCT140 BKN200 22/12 A3022 RMK AO2 SLP143 T02170117 403440194
KAPA 220553Z 24004KT 10SM BKN140 BKN200 23/12 A3022 RMK AO2 SLP144 T02280122 10294 20222 51009
KAPA 220453Z 24008KT 10SM SCT130 BKN200 22/12 A3022 RMK AO2 SLP147 T02220122
KAPA 220353Z 29006KT 10SM SCT120 BKN150 BKN200 26/11 A3021 RMK AO2 SLP140 T02560111
KAPA 220253Z 10004KT 10SM SCT100 BKN140 BKN200 25/11 A3019 RMK AO2 SLP138 T02500111 53003
KAPA 220153Z 19009KT 10SM FEW120 SCT140 BKN160 BKN220 27/11 A3019 RMK AO2 SLP140 T02670111
KAPA 220053Z 19008G19KT 10SM FEW110 SCT140 BKN220 28/10 A3015 RMK AO2 SLP127 T02830100
KAPA 212353Z 18009KT 150V230 10SM SCT110 BKN140 BKN220 29/11 A3018 RMK AO2 SLP137 T02890106 10344 20283 51009
KAPA 212253Z 28009KT 10SM FEW090 SCT110 BKN140 BKN200 29/10 A3018 RMK AO2 PK WND 27031/2156 SLP137 T02890100
KAPA 212153Z 28015G29KT 10SM SCT100 BKN140 OVC200 30/09 A3017 RMK AO2 PK WND 30029/2147 SLP126 OCNL LTGICCG DSNT SE-S CB DSNT SE-S MOV E T03000089
KAPA 212053Z 36005KT 10SM FEW100 BKN140 BKN200 33/07 A3015 RMK AO2 LTG DSNT SW AND W SLP116 OCNL LTGICCG DSNT E-S-W CB DSNT E-S-W MOV E T03330067 56012
KAPA 211953Z COR VRB03KT 10SM FEW100 SCT200 34/07 A3016 RMK AO2 LTG DSNT SE OCNL LTGICCG DSNT SE CB DSNT SE MOV E SLP117 T03390072